Hurdland, MO (63547)

10:05 AM CST on February 13, 2016 (GMT -0600)
Kirksville Regional | | Change Station
CLOSE
Current Station
Airport
Location: Kirksville,
Elevation: 965 ft
Nearby Weather Stations

Elev 965 ft 40.10 °N, 92.55 °W | Updated 10 minutes ago

Mostly Cloudy
Mostly Cloudy
11 °F
Feels Like 3 °F
N
5
Wind Variable Wind from East

Today
High -- | Low -- °F
--% Chance of Precip.
Yesterday
High -- | Low -- °F
Precip. -- in
Pressure 30.71 in
Visibility 10.0 miles
Clouds Overcast 11000 ft
Windchill 3 °F
Dew Point -3 °F
Humidity 54%
Rainfall 0.00 in
Snow Depth Not available.
7:05 AM 5:42 PM
Waxing Crescent, 32% visible
METAR KIRK 131555Z AUTO 08004KT 10SM OVC110 M12/M19 A3063 RMK AO2 SLP397 T11171194
Pressure 30.71 in
Visibility 10.0 miles
Clouds Overcast 11000 ft
Windchill 3 °F
Dew Point -3 °F
Humidity 54%
Rainfall 0.00 in
Snow Depth Not available.
7:05 AM 5:42 PM
Waxing Crescent, 32% visible
METAR KIRK 131555Z AUTO 08004KT 10SM OVC110 M12/M19 A3063 RMK AO2 SLP397 T11171194

10-Day Weather Forecast

Almanac

Astronomy

Feb. 13, 2016 Rise Set
Actual Time
Civil Twilight
Nautical Twilight
Astronomical Twilight
Moon
Length of Visible Light
Length of Day
Tomorrow will be .
, % of the Moon is Illuminated

Today's Extremes

State Highs State Lows

Community

WunderPhotos

Upload Photos

1,892,595 photos uploaded!

WunderBlog® & News

Nearby

Air Quality

  Air Quality AQ Index Pollutant
Not available.

Snow Depth

Station Depth Elevation

Earthquake Activity

City Distance Mag. Time & Date
Minimum magnitude displayed is 2.5.

Coastal Water Temperatures

Place Temperature

Stations

Nearby Weather Stations

Station Location Temp. Windchill Dew Point Humidity Wind Precip. Elev Updated Type
                   

Watches & Warnings

There are currently no watches in effect.